sensor_id;sensor_type;location;lat;lon;timestamp;P1;durP1;ratioP1;P2;durP2;ratioP2
11598;SDS011;5855;48.840;9.188;2022-08-19T00:00:17;13.77;;;12.32;;
11598;SDS011;5855;48.840;9.188;2022-08-19T00:02:44;14.93;;;12.88;;
11598;SDS011;5855;48.840;9.188;2022-08-19T00:05:12;14.70;;;13.18;;
11598;SDS011;5855;48.840;9.188;2022-08-19T00:07:41;14.23;;;12.82;;
11598;SDS011;5855;48.840;9.188;2022-08-19T00:10:18;14.25;;;12.93;;
11598;SDS011;5855;48.840;9.188;2022-08-19T00:12:47;13.90;;;12.57;;
11598;SDS011;5855;48.840;9.188;2022-08-19T00:15:15;15.35;;;12.57;;
11598;SDS011;5855;48.840;9.188;2022-08-19T00:17:44;14.23;;;12.82;;
11598;SDS011;5855;48.840;9.188;2022-08-19T00:20:12;14.13;;;12.68;;
11598;SDS011;5855;48.840;9.188;2022-08-19T00:22:41;13.68;;;12.40;;
11598;SDS011;5855;48.840;9.188;2022-08-19T00:25:09;14.10;;;12.70;;
11598;SDS011;5855;48.840;9.188;2022-08-19T00:27:36;14.30;;;12.80;;
11598;SDS011;5855;48.840;9.188;2022-08-19T00:30:06;14.30;;;12.55;;
11598;SDS011;5855;48.840;9.188;2022-08-19T00:32:34;13.75;;;12.38;;
11598;SDS011;5855;48.840;9.188;2022-08-19T00:35:01;14.05;;;12.73;;
11598;SDS011;5855;48.840;9.188;2022-08-19T00:37:29;13.88;;;12.55;;
11598;SDS011;5855;48.840;9.188;2022-08-19T00:39:55;14.30;;;12.00;;
11598;SDS011;5855;48.840;9.188;2022-08-19T00:42:22;14.00;;;12.50;;
11598;SDS011;5855;48.840;9.188;2022-08-19T00:44:50;14.25;;;12.85;;
11598;SDS011;5855;48.840;9.188;2022-08-19T00:47:19;14.32;;;12.90;;
11598;SDS011;5855;48.840;9.188;2022-08-19T00:49:50;14.55;;;13.10;;
11598;SDS011;5855;48.840;9.188;2022-08-19T00:52:21;13.85;;;12.45;;
11598;SDS011;5855;48.840;9.188;2022-08-19T00:54:53;14.88;;;13.35;;
11598;SDS011;5855;48.840;9.188;2022-08-19T00:57:22;14.20;;;12.85;;
11598;SDS011;5855;48.840;9.188;2022-08-19T00:59:53;13.70;;;12.38;;
11598;SDS011;5855;48.840;9.188;2022-08-19T01:02:23;14.43;;;12.93;;
11598;SDS011;5855;48.840;9.188;2022-08-19T01:04:50;15.18;;;13.07;;
11598;SDS011;5855;48.840;9.188;2022-08-19T01:07:17;14.45;;;13.15;;
11598;SDS011;5855;48.840;9.188;2022-08-19T01:09:46;14.00;;;12.60;;
11598;SDS011;5855;48.840;9.188;2022-08-19T01:12:16;15.05;;;13.55;;
11598;SDS011;5855;48.840;9.188;2022-08-19T01:14:44;14.38;;;12.60;;
11598;SDS011;5855;48.840;9.188;2022-08-19T01:17:12;14.80;;;13.27;;
11598;SDS011;5855;48.840;9.188;2022-08-19T01:19:43;14.88;;;13.30;;
11598;SDS011;5855;48.840;9.188;2022-08-19T01:22:14;15.50;;;13.80;;
11598;SDS011;5855;48.840;9.188;2022-08-19T01:24:49;14.90;;;13.40;;
11598;SDS011;5855;48.840;9.188;2022-08-19T01:27:19;15.23;;;13.73;;
11598;SDS011;5855;48.840;9.188;2022-08-19T01:29:46;15.65;;;14.13;;
11598;SDS011;5855;48.840;9.188;2022-08-19T01:32:14;13.88;;;12.48;;
11598;SDS011;5855;48.840;9.188;2022-08-19T01:34:42;15.63;;;14.13;;
11598;SDS011;5855;48.840;9.188;2022-08-19T01:37:12;17.10;;;14.57;;
11598;SDS011;5855;48.840;9.188;2022-08-19T01:39:40;15.27;;;13.80;;
11598;SDS011;5855;48.840;9.188;2022-08-19T01:42:09;17.58;;;14.93;;
11598;SDS011;5855;48.840;9.188;2022-08-19T01:44:37;15.82;;;14.23;;
11598;SDS011;5855;48.840;9.188;2022-08-19T01:47:06;16.13;;;14.45;;
11598;SDS011;5855;48.840;9.188;2022-08-19T01:49:34;15.55;;;14.05;;
11598;SDS011;5855;48.840;9.188;2022-08-19T01:52:02;16.92;;;15.23;;
11598;SDS011;5855;48.840;9.188;2022-08-19T01:54:31;16.60;;;14.93;;
11598;SDS011;5855;48.840;9.188;2022-08-19T01:57:00;16.60;;;14.90;;
11598;SDS011;5855;48.840;9.188;2022-08-19T01:59:32;18.20;;;15.52;;
11598;SDS011;5855;48.840;9.188;2022-08-19T02:02:01;16.60;;;14.90;;
11598;SDS011;5855;48.840;9.188;2022-08-19T02:04:29;17.58;;;15.77;;
11598;SDS011;5855;48.840;9.188;2022-08-19T02:06:57;18.08;;;15.30;;
11598;SDS011;5855;48.840;9.188;2022-08-19T02:09:23;19.23;;;16.55;;
11598;SDS011;5855;48.840;9.188;2022-08-19T02:11:50;17.15;;;15.40;;
11598;SDS011;5855;48.840;9.188;2022-08-19T02:14:18;17.63;;;15.80;;
11598;SDS011;5855;48.840;9.188;2022-08-19T02:16:46;17.23;;;15.45;;
11598;SDS011;5855;48.840;9.188;2022-08-19T02:19:13;17.75;;;15.93;;
11598;SDS011;5855;48.840;9.188;2022-08-19T02:21:40;19.05;;;17.05;;
11598;SDS011;5855;48.840;9.188;2022-08-19T02:24:08;20.70;;;16.88;;
11598;SDS011;5855;48.840;9.188;2022-08-19T02:26:35;18.40;;;16.38;;
11598;SDS011;5855;48.840;9.188;2022-08-19T02:29:02;18.70;;;16.70;;
11598;SDS011;5855;48.840;9.188;2022-08-19T02:31:29;17.00;;;15.30;;
11598;SDS011;5855;48.840;9.188;2022-08-19T02:33:57;17.85;;;16.02;;
11598;SDS011;5855;48.840;9.188;2022-08-19T02:36:24;18.75;;;16.95;;
11598;SDS011;5855;48.840;9.188;2022-08-19T02:38:52;19.15;;;17.15;;
11598;SDS011;5855;48.840;9.188;2022-08-19T02:41:20;18.75;;;16.88;;
11598;SDS011;5855;48.840;9.188;2022-08-19T02:43:48;19.60;;;17.52;;
11598;SDS011;5855;48.840;9.188;2022-08-19T02:46:16;21.60;;;18.73;;
11598;SDS011;5855;48.840;9.188;2022-08-19T02:48:46;19.83;;;17.83;;
11598;SDS011;5855;48.840;9.188;2022-08-19T02:51:17;20.05;;;17.85;;
11598;SDS011;5855;48.840;9.188;2022-08-19T02:53:45;19.23;;;17.23;;
11598;SDS011;5855;48.840;9.188;2022-08-19T02:56:12;21.58;;;19.27;;
11598;SDS011;5855;48.840;9.188;2022-08-19T02:58:39;20.13;;;18.13;;
11598;SDS011;5855;48.840;9.188;2022-08-19T03:01:06;20.25;;;18.20;;
11598;SDS011;5855;48.840;9.188;2022-08-19T03:03:33;20.23;;;18.13;;
11598;SDS011;5855;48.840;9.188;2022-08-19T03:06:07;19.23;;;17.33;;
11598;SDS011;5855;48.840;9.188;2022-08-19T03:08:42;20.67;;;18.30;;
11598;SDS011;5855;48.840;9.188;2022-08-19T03:11:14;22.02;;;19.73;;
11598;SDS011;5855;48.840;9.188;2022-08-19T03:13:42;22.50;;;20.10;;
11598;SDS011;5855;48.840;9.188;2022-08-19T03:16:09;20.27;;;18.17;;
11598;SDS011;5855;48.840;9.188;2022-08-19T03:18:36;21.63;;;19.38;;
11598;SDS011;5855;48.840;9.188;2022-08-19T03:21:04;21.08;;;18.02;;
11598;SDS011;5855;48.840;9.188;2022-08-19T03:23:32;21.60;;;19.25;;
11598;SDS011;5855;48.840;9.188;2022-08-19T03:26:02;21.70;;;19.35;;
11598;SDS011;5855;48.840;9.188;2022-08-19T03:28:31;20.80;;;18.70;;
11598;SDS011;5855;48.840;9.188;2022-08-19T03:31:00;22.70;;;20.35;;
11598;SDS011;5855;48.840;9.188;2022-08-19T03:33:28;21.60;;;19.02;;
11598;SDS011;5855;48.840;9.188;2022-08-19T03:35:59;21.27;;;19.13;;
11598;SDS011;5855;48.840;9.188;2022-08-19T03:38:27;23.10;;;20.80;;
11598;SDS011;5855;48.840;9.188;2022-08-19T03:40:54;21.90;;;19.60;;
11598;SDS011;5855;48.840;9.188;2022-08-19T03:43:25;24.17;;;20.02;;
11598;SDS011;5855;48.840;9.188;2022-08-19T03:45:59;22.95;;;20.55;;
11598;SDS011;5855;48.840;9.188;2022-08-19T03:48:27;23.95;;;20.90;;
11598;SDS011;5855;48.840;9.188;2022-08-19T03:50:55;21.48;;;19.33;;
11598;SDS011;5855;48.840;9.188;2022-08-19T03:53:22;25.52;;;20.08;;
11598;SDS011;5855;48.840;9.188;2022-08-19T03:55:49;22.17;;;19.88;;
11598;SDS011;5855;48.840;9.188;2022-08-19T03:58:16;23.55;;;21.05;;
11598;SDS011;5855;48.840;9.188;2022-08-19T04:00:44;22.83;;;20.52;;
11598;SDS011;5855;48.840;9.188;2022-08-19T04:03:11;22.90;;;20.27;;
11598;SDS011;5855;48.840;9.188;2022-08-19T04:05:38;23.77;;;21.27;;
11598;SDS011;5855;48.840;9.188;2022-08-19T04:08:05;23.45;;;20.90;;
11598;SDS011;5855;48.840;9.188;2022-08-19T04:10:35;22.20;;;19.90;;
11598;SDS011;5855;48.840;9.188;2022-08-19T04:13:02;23.52;;;21.10;;
11598;SDS011;5855;48.840;9.188;2022-08-19T04:15:30;24.00;;;21.60;;
11598;SDS011;5855;48.840;9.188;2022-08-19T04:18:02;23.67;;;20.27;;
11598;SDS011;5855;48.840;9.188;2022-08-19T04:20:31;22.75;;;20.42;;
11598;SDS011;5855;48.840;9.188;2022-08-19T04:22:58;23.70;;;21.35;;
11598;SDS011;5855;48.840;9.188;2022-08-19T04:25:24;23.75;;;21.33;;
11598;SDS011;5855;48.840;9.188;2022-08-19T04:27:51;22.73;;;20.42;;
11598;SDS011;5855;48.840;9.188;2022-08-19T04:30:18;24.25;;;21.75;;
11598;SDS011;5855;48.840;9.188;2022-08-19T04:32:47;25.30;;;22.63;;
11598;SDS011;5855;48.840;9.188;2022-08-19T04:35:16;23.27;;;20.92;;
11598;SDS011;5855;48.840;9.188;2022-08-19T04:37:43;24.27;;;21.77;;
11598;SDS011;5855;48.840;9.188;2022-08-19T04:40:10;23.77;;;21.27;;
11598;SDS011;5855;48.840;9.188;2022-08-19T04:42:55;23.35;;;21.05;;
11598;SDS011;5855;48.840;9.188;2022-08-19T04:45:22;26.15;;;22.15;;
11598;SDS011;5855;48.840;9.188;2022-08-19T04:47:49;25.90;;;22.52;;
11598;SDS011;5855;48.840;9.188;2022-08-19T04:50:22;25.58;;;22.73;;
11598;SDS011;5855;48.840;9.188;2022-08-19T04:52:50;25.15;;;22.38;;
11598;SDS011;5855;48.840;9.188;2022-08-19T04:55:17;24.90;;;22.30;;
11598;SDS011;5855;48.840;9.188;2022-08-19T04:57:44;24.67;;;22.27;;
11598;SDS011;5855;48.840;9.188;2022-08-19T05:00:11;26.75;;;22.90;;
11598;SDS011;5855;48.840;9.188;2022-08-19T05:02:38;24.10;;;21.67;;
11598;SDS011;5855;48.840;9.188;2022-08-19T05:05:05;24.67;;;22.08;;
11598;SDS011;5855;48.840;9.188;2022-08-19T05:07:34;25.52;;;22.90;;
11598;SDS011;5855;48.840;9.188;2022-08-19T05:10:06;23.65;;;21.25;;
11598;SDS011;5855;48.840;9.188;2022-08-19T05:12:33;25.10;;;22.55;;
11598;SDS011;5855;48.840;9.188;2022-08-19T05:15:02;23.55;;;21.23;;
11598;SDS011;5855;48.840;9.188;2022-08-19T05:17:30;25.00;;;21.95;;
11598;SDS011;5855;48.840;9.188;2022-08-19T05:19:57;24.98;;;22.48;;
11598;SDS011;5855;48.840;9.188;2022-08-19T05:22:44;24.42;;;21.38;;
11598;SDS011;5855;48.840;9.188;2022-08-19T05:25:13;23.27;;;20.75;;
11598;SDS011;5855;48.840;9.188;2022-08-19T05:27:46;23.77;;;21.35;;
11598;SDS011;5855;48.840;9.188;2022-08-19T05:30:14;24.60;;;22.13;;
11598;SDS011;5855;48.840;9.188;2022-08-19T05:32:41;27.52;;;24.40;;
11598;SDS011;5855;48.840;9.188;2022-08-19T05:35:08;25.13;;;22.73;;
11598;SDS011;5855;48.840;9.188;2022-08-19T05:37:36;24.38;;;21.98;;
11598;SDS011;5855;48.840;9.188;2022-08-19T05:40:07;24.42;;;22.13;;
11598;SDS011;5855;48.840;9.188;2022-08-19T05:42:35;26.73;;;23.42;;
11598;SDS011;5855;48.840;9.188;2022-08-19T05:45:02;25.23;;;22.52;;
11598;SDS011;5855;48.840;9.188;2022-08-19T05:47:29;25.08;;;22.60;;
11598;SDS011;5855;48.840;9.188;2022-08-19T05:49:57;25.92;;;23.30;;
11598;SDS011;5855;48.840;9.188;2022-08-19T05:52:23;24.13;;;21.63;;
11598;SDS011;5855;48.840;9.188;2022-08-19T05:54:52;23.92;;;21.25;;
11598;SDS011;5855;48.840;9.188;2022-08-19T05:57:22;23.88;;;21.52;;
11598;SDS011;5855;48.840;9.188;2022-08-19T05:59:49;25.92;;;23.33;;
11598;SDS011;5855;48.840;9.188;2022-08-19T06:02:16;24.42;;;22.02;;
11598;SDS011;5855;48.840;9.188;2022-08-19T06:04:43;24.48;;;22.10;;
11598;SDS011;5855;48.840;9.188;2022-08-19T06:07:10;23.55;;;21.15;;
11598;SDS011;5855;48.840;9.188;2022-08-19T06:09:37;24.80;;;22.33;;
11598;SDS011;5855;48.840;9.188;2022-08-19T06:12:04;25.42;;;22.83;;
11598;SDS011;5855;48.840;9.188;2022-08-19T06:14:33;24.85;;;22.15;;
11598;SDS011;5855;48.840;9.188;2022-08-19T06:17:01;23.50;;;21.27;;
11598;SDS011;5855;48.840;9.188;2022-08-19T06:19:29;23.88;;;21.48;;
11598;SDS011;5855;48.840;9.188;2022-08-19T06:21:57;24.30;;;21.88;;
11598;SDS011;5855;48.840;9.188;2022-08-19T06:24:25;24.92;;;22.30;;
11598;SDS011;5855;48.840;9.188;2022-08-19T06:26:54;25.85;;;22.77;;
11598;SDS011;5855;48.840;9.188;2022-08-19T06:29:23;26.63;;;22.30;;
11598;SDS011;5855;48.840;9.188;2022-08-19T06:31:52;24.15;;;21.23;;
11598;SDS011;5855;48.840;9.188;2022-08-19T06:34:21;24.35;;;21.85;;
11598;SDS011;5855;48.840;9.188;2022-08-19T06:36:49;23.55;;;21.15;;
11598;SDS011;5855;48.840;9.188;2022-08-19T06:39:18;24.73;;;22.10;;
11598;SDS011;5855;48.840;9.188;2022-08-19T06:41:47;26.17;;;22.42;;
11598;SDS011;5855;48.840;9.188;2022-08-19T06:44:16;25.02;;;22.25;;
11598;SDS011;5855;48.840;9.188;2022-08-19T06:46:44;24.52;;;21.95;;
11598;SDS011;5855;48.840;9.188;2022-08-19T06:49:12;26.10;;;23.33;;
11598;SDS011;5855;48.840;9.188;2022-08-19T06:51:40;25.88;;;23.17;;
11598;SDS011;5855;48.840;9.188;2022-08-19T06:54:08;25.52;;;22.95;;
11598;SDS011;5855;48.840;9.188;2022-08-19T06:56:35;27.50;;;23.10;;
11598;SDS011;5855;48.840;9.188;2022-08-19T06:59:03;26.60;;;23.83;;
11598;SDS011;5855;48.840;9.188;2022-08-19T07:01:33;26.80;;;22.80;;
11598;SDS011;5855;48.840;9.188;2022-08-19T07:04:03;25.58;;;22.45;;
11598;SDS011;5855;48.840;9.188;2022-08-19T07:06:32;25.83;;;23.27;;
11598;SDS011;5855;48.840;9.188;2022-08-19T07:08:59;24.63;;;22.08;;
11598;SDS011;5855;48.840;9.188;2022-08-19T07:11:25;25.30;;;22.63;;
11598;SDS011;5855;48.840;9.188;2022-08-19T07:13:52;24.48;;;21.88;;
11598;SDS011;5855;48.840;9.188;2022-08-19T07:16:20;24.75;;;22.23;;
11598;SDS011;5855;48.840;9.188;2022-08-19T07:18:47;23.85;;;21.20;;
11598;SDS011;5855;48.840;9.188;2022-08-19T07:21:16;23.92;;;21.58;;
11598;SDS011;5855;48.840;9.188;2022-08-19T07:23:46;22.27;;;19.77;;
11598;SDS011;5855;48.840;9.188;2022-08-19T07:26:15;22.73;;;20.42;;
11598;SDS011;5855;48.840;9.188;2022-08-19T07:28:44;25.30;;;21.75;;
11598;SDS011;5855;48.840;9.188;2022-08-19T07:31:12;23.23;;;20.88;;
11598;SDS011;5855;48.840;9.188;2022-08-19T07:33:40;22.70;;;20.60;;
11598;SDS011;5855;48.840;9.188;2022-08-19T07:36:09;22.25;;;20.10;;
11598;SDS011;5855;48.840;9.188;2022-08-19T07:38:38;22.98;;;20.45;;
11598;SDS011;5855;48.840;9.188;2022-08-19T07:41:09;28.52;;;21.58;;
11598;SDS011;5855;48.840;9.188;2022-08-19T07:43:37;22.63;;;20.35;;
11598;SDS011;5855;48.840;9.188;2022-08-19T07:46:04;21.98;;;19.67;;
11598;SDS011;5855;48.840;9.188;2022-08-19T07:48:32;21.30;;;19.20;;
11598;SDS011;5855;48.840;9.188;2022-08-19T07:51:03;23.30;;;19.52;;
11598;SDS011;5855;48.840;9.188;2022-08-19T07:53:33;20.85;;;18.65;;
11598;SDS011;5855;48.840;9.188;2022-08-19T07:56:02;20.83;;;18.85;;
11598;SDS011;5855;48.840;9.188;2022-08-19T07:58:32;21.40;;;19.38;;
11598;SDS011;5855;48.840;9.188;2022-08-19T08:01:02;20.05;;;18.05;;
11598;SDS011;5855;48.840;9.188;2022-08-19T08:03:30;19.85;;;17.73;;
11598;SDS011;5855;48.840;9.188;2022-08-19T08:06:16;22.48;;;18.80;;
11598;SDS011;5855;48.840;9.188;2022-08-19T08:09:00;21.55;;;19.08;;
11598;SDS011;5855;48.840;9.188;2022-08-19T08:11:43;21.98;;;19.77;;
11598;SDS011;5855;48.840;9.188;2022-08-19T08:14:15;23.20;;;19.80;;
11598;SDS011;5855;48.840;9.188;2022-08-19T08:16:43;20.63;;;18.40;;
11598;SDS011;5855;48.840;9.188;2022-08-19T08:19:11;20.58;;;17.90;;
11598;SDS011;5855;48.840;9.188;2022-08-19T08:21:40;20.38;;;18.40;;
11598;SDS011;5855;48.840;9.188;2022-08-19T08:24:07;20.05;;;18.02;;
11598;SDS011;5855;48.840;9.188;2022-08-19T08:26:34;20.08;;;17.88;;
11598;SDS011;5855;48.840;9.188;2022-08-19T08:29:01;19.85;;;17.85;;
11598;SDS011;5855;48.840;9.188;2022-08-19T08:31:30;20.25;;;17.77;;
11598;SDS011;5855;48.840;9.188;2022-08-19T08:33:57;19.30;;;17.40;;
11598;SDS011;5855;48.840;9.188;2022-08-19T08:36:24;22.13;;;18.88;;
11598;SDS011;5855;48.840;9.188;2022-08-19T08:38:52;20.67;;;18.45;;
11598;SDS011;5855;48.840;9.188;2022-08-19T08:41:22;20.02;;;17.92;;
11598;SDS011;5855;48.840;9.188;2022-08-19T08:43:56;21.52;;;19.33;;
11598;SDS011;5855;48.840;9.188;2022-08-19T08:46:25;20.38;;;18.48;;
11598;SDS011;5855;48.840;9.188;2022-08-19T08:49:02;20.92;;;18.65;;
11598;SDS011;5855;48.840;9.188;2022-08-19T08:51:33;20.58;;;18.48;;
11598;SDS011;5855;48.840;9.188;2022-08-19T08:54:04;20.42;;;18.33;;
11598;SDS011;5855;48.840;9.188;2022-08-19T08:56:33;20.67;;;17.73;;
11598;SDS011;5855;48.840;9.188;2022-08-19T08:59:01;20.50;;;18.38;;
11598;SDS011;5855;48.840;9.188;2022-08-19T09:01:32;20.10;;;18.10;;
11598;SDS011;5855;48.840;9.188;2022-08-19T09:03:58;20.05;;;18.00;;
11598;SDS011;5855;48.840;9.188;2022-08-19T09:06:38;19.45;;;17.55;;
11598;SDS011;5855;48.840;9.188;2022-08-19T09:09:18;19.90;;;17.90;;
11598;SDS011;5855;48.840;9.188;2022-08-19T09:11:56;19.80;;;17.80;;
11598;SDS011;5855;48.840;9.188;2022-08-19T09:14:34;18.63;;;16.73;;
11598;SDS011;5855;48.840;9.188;2022-08-19T09:17:07;18.42;;;16.63;;
11598;SDS011;5855;48.840;9.188;2022-08-19T09:19:36;16.60;;;15.02;;
11598;SDS011;5855;48.840;9.188;2022-08-19T09:22:15;18.30;;;16.50;;
11598;SDS011;5855;48.840;9.188;2022-08-19T09:24:42;17.83;;;15.98;;
11598;SDS011;5855;48.840;9.188;2022-08-19T09:27:08;18.90;;;17.02;;
11598;SDS011;5855;48.840;9.188;2022-08-19T09:29:35;17.13;;;15.32;;
11598;SDS011;5855;48.840;9.188;2022-08-19T09:32:02;17.13;;;15.52;;
11598;SDS011;5855;48.840;9.188;2022-08-19T09:34:31;17.33;;;15.63;;
11598;SDS011;5855;48.840;9.188;2022-08-19T09:36:59;16.70;;;14.85;;
11598;SDS011;5855;48.840;9.188;2022-08-19T09:39:27;16.83;;;14.80;;
11598;SDS011;5855;48.840;9.188;2022-08-19T09:41:55;15.50;;;14.07;;
11598;SDS011;5855;48.840;9.188;2022-08-19T09:44:22;15.50;;;13.50;;
11598;SDS011;5855;48.840;9.188;2022-08-19T09:46:49;16.80;;;13.45;;
11598;SDS011;5855;48.840;9.188;2022-08-19T09:49:16;15.48;;;13.93;;
11598;SDS011;5855;48.840;9.188;2022-08-19T09:51:45;15.05;;;13.48;;
11598;SDS011;5855;48.840;9.188;2022-08-19T09:54:16;15.43;;;13.82;;
11598;SDS011;5855;48.840;9.188;2022-08-19T09:56:43;15.63;;;14.00;;
11598;SDS011;5855;48.840;9.188;2022-08-19T09:59:10;15.98;;;13.48;;
11598;SDS011;5855;48.840;9.188;2022-08-19T10:01:38;16.25;;;12.35;;
11598;SDS011;5855;48.840;9.188;2022-08-19T10:04:05;13.63;;;12.23;;
11598;SDS011;5855;48.840;9.188;2022-08-19T10:06:33;13.82;;;12.52;;
11598;SDS011;5855;48.840;9.188;2022-08-19T10:09:03;14.02;;;12.23;;
11598;SDS011;5855;48.840;9.188;2022-08-19T10:11:32;15.95;;;12.90;;
11598;SDS011;5855;48.840;9.188;2022-08-19T10:14:02;13.85;;;12.20;;
11598;SDS011;5855;48.840;9.188;2022-08-19T10:16:31;13.55;;;11.65;;
11598;SDS011;5855;48.840;9.188;2022-08-19T10:18:58;13.27;;;11.93;;
11598;SDS011;5855;48.840;9.188;2022-08-19T10:21:26;16.65;;;12.40;;
11598;SDS011;5855;48.840;9.188;2022-08-19T10:23:55;13.25;;;11.40;;
11598;SDS011;5855;48.840;9.188;2022-08-19T10:26:27;13.65;;;12.18;;
11598;SDS011;5855;48.840;9.188;2022-08-19T10:28:57;12.30;;;11.00;;
11598;SDS011;5855;48.840;9.188;2022-08-19T10:31:25;11.85;;;10.75;;
11598;SDS011;5855;48.840;9.188;2022-08-19T10:33:54;12.80;;;11.52;;
11598;SDS011;5855;48.840;9.188;2022-08-19T10:36:25;12.90;;;10.70;;
11598;SDS011;5855;48.840;9.188;2022-08-19T10:38:54;11.15;;;9.95;;
11598;SDS011;5855;48.840;9.188;2022-08-19T10:41:24;13.02;;;10.38;;
11598;SDS011;5855;48.840;9.188;2022-08-19T10:43:55;12.63;;;10.43;;
11598;SDS011;5855;48.840;9.188;2022-08-19T10:46:25;10.57;;;9.48;;
11598;SDS011;5855;48.840;9.188;2022-08-19T10:48:54;10.45;;;9.40;;
11598;SDS011;5855;48.840;9.188;2022-08-19T10:51:21;10.00;;;8.60;;
11598;SDS011;5855;48.840;9.188;2022-08-19T10:54:11;10.30;;;8.23;;
11598;SDS011;5855;48.840;9.188;2022-08-19T10:56:38;8.93;;;8.07;;
11598;SDS011;5855;48.840;9.188;2022-08-19T10:59:22;10.60;;;8.05;;
11598;SDS011;5855;48.840;9.188;2022-08-19T11:01:52;8.07;;;7.10;;
11598;SDS011;5855;48.840;9.188;2022-08-19T11:04:20;9.98;;;7.13;;
11598;SDS011;5855;48.840;9.188;2022-08-19T11:06:47;9.52;;;7.22;;
11598;SDS011;5855;48.840;9.188;2022-08-19T11:09:15;7.30;;;6.30;;
11598;SDS011;5855;48.840;9.188;2022-08-19T11:11:44;7.00;;;6.20;;
11598;SDS011;5855;48.840;9.188;2022-08-19T11:14:14;7.82;;;6.30;;
11598;SDS011;5855;48.840;9.188;2022-08-19T11:16:46;9.30;;;6.53;;
11598;SDS011;5855;48.840;9.188;2022-08-19T11:19:14;7.00;;;6.28;;
11598;SDS011;5855;48.840;9.188;2022-08-19T11:21:44;6.82;;;5.88;;
11598;SDS011;5855;48.840;9.188;2022-08-19T11:24:14;9.25;;;5.95;;
11598;SDS011;5855;48.840;9.188;2022-08-19T11:26:43;8.98;;;7.22;;
11598;SDS011;5855;48.840;9.188;2022-08-19T11:29:11;7.53;;;5.75;;
11598;SDS011;5855;48.840;9.188;2022-08-19T11:31:39;10.68;;;6.50;;
11598;SDS011;5855;48.840;9.188;2022-08-19T11:34:13;7.65;;;6.22;;
11598;SDS011;5855;48.840;9.188;2022-08-19T11:36:44;8.77;;;6.70;;
11598;SDS011;5855;48.840;9.188;2022-08-19T11:39:13;6.68;;;5.93;;
11598;SDS011;5855;48.840;9.188;2022-08-19T11:41:41;6.97;;;5.40;;
11598;SDS011;5855;48.840;9.188;2022-08-19T11:44:08;10.27;;;6.10;;
11598;SDS011;5855;48.840;9.188;2022-08-19T11:46:37;6.50;;;5.90;;
11598;SDS011;5855;48.840;9.188;2022-08-19T11:49:04;8.85;;;5.90;;
11598;SDS011;5855;48.840;9.188;2022-08-19T11:51:35;6.47;;;5.88;;
11598;SDS011;5855;48.840;9.188;2022-08-19T11:54:03;6.50;;;5.90;;
11598;SDS011;5855;48.840;9.188;2022-08-19T11:56:31;6.43;;;5.70;;
11598;SDS011;5855;48.840;9.188;2022-08-19T11:59:01;6.97;;;6.25;;
11598;SDS011;5855;48.840;9.188;2022-08-19T12:01:28;6.97;;;6.28;;
11598;SDS011;5855;48.840;9.188;2022-08-19T12:03:55;10.00;;;6.15;;
11598;SDS011;5855;48.840;9.188;2022-08-19T12:06:24;7.55;;;6.20;;
11598;SDS011;5855;48.840;9.188;2022-08-19T12:08:55;9.73;;;6.80;;
11598;SDS011;5855;48.840;9.188;2022-08-19T12:11:23;8.23;;;6.50;;
11598;SDS011;5855;48.840;9.188;2022-08-19T12:13:50;8.48;;;6.40;;
11598;SDS011;5855;48.840;9.188;2022-08-19T12:16:19;8.63;;;6.47;;
11598;SDS011;5855;48.840;9.188;2022-08-19T12:18:48;6.85;;;5.97;;
11598;SDS011;5855;48.840;9.188;2022-08-19T12:21:17;8.93;;;6.70;;
11598;SDS011;5855;48.840;9.188;2022-08-19T12:23:47;7.15;;;6.40;;
11598;SDS011;5855;48.840;9.188;2022-08-19T12:26:17;7.35;;;6.65;;
11598;SDS011;5855;48.840;9.188;2022-08-19T12:28:45;7.20;;;6.60;;
11598;SDS011;5855;48.840;9.188;2022-08-19T12:31:13;8.73;;;6.40;;
11598;SDS011;5855;48.840;9.188;2022-08-19T12:33:41;10.70;;;6.90;;
11598;SDS011;5855;48.840;9.188;2022-08-19T12:36:09;8.13;;;7.20;;
11598;SDS011;5855;48.840;9.188;2022-08-19T12:38:38;7.30;;;6.60;;
11598;SDS011;5855;48.840;9.188;2022-08-19T12:41:05;9.30;;;7.18;;
11598;SDS011;5855;48.840;9.188;2022-08-19T12:43:36;7.00;;;6.20;;
11598;SDS011;5855;48.840;9.188;2022-08-19T12:46:04;6.72;;;6.00;;
11598;SDS011;5855;48.840;9.188;2022-08-19T12:48:31;6.22;;;5.65;;
11598;SDS011;5855;48.840;9.188;2022-08-19T12:50:59;8.27;;;5.75;;
11598;SDS011;5855;48.840;9.188;2022-08-19T12:53:27;6.55;;;5.90;;
11598;SDS011;5855;48.840;9.188;2022-08-19T12:55:54;5.70;;;5.20;;
11598;SDS011;5855;48.840;9.188;2022-08-19T12:58:22;5.95;;;5.13;;
11598;SDS011;5855;48.840;9.188;2022-08-19T13:00:51;5.43;;;4.90;;
11598;SDS011;5855;48.840;9.188;2022-08-19T13:03:17;5.78;;;5.28;;
11598;SDS011;5855;48.840;9.188;2022-08-19T13:05:44;9.63;;;8.70;;
11598;SDS011;5855;48.840;9.188;2022-08-19T13:08:11;9.90;;;8.50;;
11598;SDS011;5855;48.840;9.188;2022-08-19T13:10:38;11.90;;;10.73;;
11598;SDS011;5855;48.840;9.188;2022-08-19T13:13:06;14.85;;;13.38;;
11598;SDS011;5855;48.840;9.188;2022-08-19T13:15:35;16.75;;;12.27;;
11598;SDS011;5855;48.840;9.188;2022-08-19T13:18:06;16.27;;;14.65;;
11598;SDS011;5855;48.840;9.188;2022-08-19T13:20:34;21.85;;;16.52;;
11598;SDS011;5855;48.840;9.188;2022-08-19T13:23:02;17.52;;;15.15;;
11598;SDS011;5855;48.840;9.188;2022-08-19T13:25:29;14.75;;;13.25;;
11598;SDS011;5855;48.840;9.188;2022-08-19T13:27:55;18.35;;;15.27;;
11598;SDS011;5855;48.840;9.188;2022-08-19T13:30:22;17.98;;;15.35;;
11598;SDS011;5855;48.840;9.188;2022-08-19T13:33:08;17.42;;;15.52;;
11598;SDS011;5855;48.840;9.188;2022-08-19T13:35:41;22.90;;;19.73;;
11598;SDS011;5855;48.840;9.188;2022-08-19T13:38:10;17.58;;;15.82;;
11598;SDS011;5855;48.840;9.188;2022-08-19T13:40:39;19.90;;;17.90;;
11598;SDS011;5855;48.840;9.188;2022-08-19T13:43:06;19.60;;;17.60;;
11598;SDS011;5855;48.840;9.188;2022-08-19T13:45:34;21.75;;;19.42;;
11598;SDS011;5855;48.840;9.188;2022-08-19T13:48:02;22.08;;;19.20;;
11598;SDS011;5855;48.840;9.188;2022-08-19T13:50:35;35.83;;;20.88;;
11598;SDS011;5855;48.840;9.188;2022-08-19T13:53:06;24.42;;;21.92;;
11598;SDS011;5855;48.840;9.188;2022-08-19T13:55:34;24.73;;;21.15;;
11598;SDS011;5855;48.840;9.188;2022-08-19T13:58:02;27.42;;;24.52;;
11598;SDS011;5855;48.840;9.188;2022-08-19T14:00:31;27.13;;;24.33;;
11598;SDS011;5855;48.840;9.188;2022-08-19T14:02:59;29.10;;;26.17;;
11598;SDS011;5855;48.840;9.188;2022-08-19T14:05:28;27.95;;;25.02;;
11598;SDS011;5855;48.840;9.188;2022-08-19T14:07:57;28.77;;;25.80;;
11598;SDS011;5855;48.840;9.188;2022-08-19T14:10:25;26.95;;;24.00;;
11598;SDS011;5855;48.840;9.188;2022-08-19T14:12:53;28.13;;;25.10;;
11598;SDS011;5855;48.840;9.188;2022-08-19T14:15:23;22.98;;;20.77;;
11598;SDS011;5855;48.840;9.188;2022-08-19T14:17:50;23.88;;;21.33;;
11598;SDS011;5855;48.840;9.188;2022-08-19T14:20:18;23.65;;;21.15;;
11598;SDS011;5855;48.840;9.188;2022-08-19T14:22:46;24.67;;;22.05;;
11598;SDS011;5855;48.840;9.188;2022-08-19T14:25:15;25.65;;;22.95;;
11598;SDS011;5855;48.840;9.188;2022-08-19T14:27:45;23.95;;;21.52;;
11598;SDS011;5855;48.840;9.188;2022-08-19T14:30:14;26.23;;;23.50;;
11598;SDS011;5855;48.840;9.188;2022-08-19T14:32:42;24.17;;;21.60;;
11598;SDS011;5855;48.840;9.188;2022-08-19T14:35:09;23.65;;;21.25;;
11598;SDS011;5855;48.840;9.188;2022-08-19T14:37:39;21.90;;;19.75;;
11598;SDS011;5855;48.840;9.188;2022-08-19T14:40:07;23.45;;;21.05;;
11598;SDS011;5855;48.840;9.188;2022-08-19T14:42:36;23.80;;;21.30;;
11598;SDS011;5855;48.840;9.188;2022-08-19T14:45:04;25.10;;;22.42;;
11598;SDS011;5855;48.840;9.188;2022-08-19T14:47:31;21.55;;;19.35;;